Time;durP1;ratioP1;P1;durP2;ratioP2;P2;SDS_P1;SDS_P2;PMS_P1;PMS_P2;Temp;Humidity;BMP_temperature;BMP_pressure;BME280_temperature;BME280_humidity;BME280_pressure;Samples;Min_cycle;Max_cycle;Signal;HPM_P1;HPM_P2
2023/09/03 00:07:27;;;;;;;11.02;5.85;;;;;;;26.37;100.00;100909.59;20663873;28;20120;-74
2023/09/03 00:17:50;;;;;;;13.00;5.20;;;;;;;26.34;100.00;100897.06;20647619;28;20146;-74
2023/09/03 00:28:14;;;;;;;14.32;5.75;;;;;;;26.33;100.00;100889.00;20643141;28;20053;-74
2023/09/03 00:38:37;;;;;;;11.38;5.45;;;;;;;26.28;100.00;100874.81;20639895;28;20094;-74
2023/09/03 00:49:01;;;;;;;13.23;5.43;;;;;;;26.27;100.00;100876.66;20656678;28;20145;-74
2023/09/03 00:59:25;;;;;;;10.25;5.78;;;;;;;26.25;100.00;100870.44;20639537;28;20057;-73
2023/09/03 01:09:49;;;;;;;14.38;5.47;;;;;;;26.21;100.00;100863.38;20648645;28;20081;-73
2023/09/03 01:20:17;;;;;;;14.63;6.45;;;;;;;26.19;100.00;100858.03;20650089;28;20109;-74
2023/09/03 01:30:41;;;;;;;9.53;5.77;;;;;;;26.12;100.00;100844.88;20651126;28;20046;-74
2023/09/03 01:41:05;;;;;;;11.20;5.68;;;;;;;26.08;100.00;100846.84;20650492;28;20066;-74
2023/09/03 01:51:37;;;;;;;14.80;6.50;;;;;;;26.06;100.00;100845.13;20669030;28;20054;-74
2023/09/03 02:02:01;;;;;;;12.70;5.43;;;;;;;26.04;100.00;100849.78;20654513;28;20101;-73
2023/09/03 02:12:25;;;;;;;11.98;5.35;;;;;;;26.00;100.00;100843.59;20572886;28;20047;-73
2023/09/03 02:22:47;;;;;;;9.48;5.38;;;;;;;26.04;100.00;100841.66;20636472;28;20050;-73
2023/09/03 02:33:12;;;;;;;13.05;6.03;;;;;;;26.03;100.00;100832.66;20646592;28;20050;-73
2023/09/03 02:43:35;;;;;;;10.70;5.30;;;;;;;25.99;100.00;100825.59;20633518;28;20705;-74
2023/09/03 02:54:00;;;;;;;12.38;5.90;;;;;;;26.01;100.00;100822.84;20631688;28;20471;-73
2023/09/03 03:04:22;;;;;;;10.90;5.22;;;;;;;26.03;100.00;100824.53;20632206;28;20058;-74
2023/09/03 03:14:46;;;;;;;12.82;6.28;;;;;;;26.04;100.00;100812.75;20653885;28;20137;-74
2023/09/03 03:25:10;;;;;;;12.30;6.07;;;;;;;26.00;100.00;100815.66;20633201;28;20054;-74
2023/09/03 03:35:38;;;;;;;12.77;5.78;;;;;;;26.02;100.00;100811.06;20662383;28;20050;-74
2023/09/03 03:46:00;;;;;;;18.03;6.33;;;;;;;25.97;100.00;100829.34;20660087;28;20054;-74
2023/09/03 03:56:26;;;;;;;15.30;5.82;;;;;;;25.97;100.00;100821.25;20696620;28;20062;-75
2023/09/03 04:06:49;;;;;;;14.65;6.40;;;;;;;26.03;100.00;100829.94;20666870;28;20054;-74
2023/09/03 04:17:13;;;;;;;12.88;5.70;;;;;;;26.07;100.00;100826.13;20641721;28;20051;-74
2023/09/03 04:27:36;;;;;;;13.77;5.45;;;;;;;26.10;100.00;100822.41;20643537;28;20574;-74
2023/09/03 04:38:01;;;;;;;17.52;5.53;;;;;;;26.15;100.00;100815.81;20640148;28;20046;-74
2023/09/03 04:48:24;;;;;;;14.32;5.82;;;;;;;26.32;100.00;100831.28;20645476;28;20491;-74
2023/09/03 04:58:48;;;;;;;15.55;6.60;;;;;;;26.49;100.00;100796.13;20640559;28;20050;-75
2023/09/03 05:09:11;;;;;;;13.18;6.07;;;;;;;26.67;100.00;100812.41;20653183;28;20073;-75
2023/09/03 05:19:35;;;;;;;14.40;5.85;;;;;;;27.09;100.00;100804.84;20652767;28;20129;-74
2023/09/03 05:29:58;;;;;;;14.07;5.57;;;;;;;27.66;100.00;100811.75;20636619;28;20092;-73
2023/09/03 05:40:22;;;;;;;14.02;5.80;;;;;;;28.06;100.00;100810.44;20647744;28;20100;-73
2023/09/03 05:50:45;;;;;;;12.00;5.13;;;;;;;28.38;100.00;100830.34;20686540;28;20058;-73
2023/09/03 06:01:11;;;;;;;11.93;5.15;;;;;;;28.32;100.00;100816.25;20617947;28;20195;-73
2023/09/03 06:11:34;;;;;;;11.55;4.60;;;;;;;28.04;100.00;100823.19;20644244;28;20050;-74
2023/09/03 06:21:58;;;;;;;13.60;5.70;;;;;;;28.03;100.00;100836.84;20654128;28;20050;-73
2023/09/03 06:32:21;;;;;;;13.07;5.75;;;;;;;27.95;100.00;100852.72;20647847;28;20066;-74
2023/09/03 06:42:45;;;;;;;12.55;5.18;;;;;;;27.91;100.00;100856.53;20632698;28;20088;-73
2023/09/03 06:53:07;;;;;;;12.05;4.93;;;;;;;28.68;100.00;100873.94;20649512;28;20391;-74
2023/09/03 07:03:32;;;;;;;9.27;4.45;;;;;;;29.76;100.00;100864.72;20643237;28;20525;-73
2023/09/03 07:13:55;;;;;;;10.82;4.22;;;;;;;31.04;98.40;100840.91;20624418;28;20090;-74
2023/09/03 07:24:20;;;;;;;11.35;4.35;;;;;;;31.55;89.61;100833.69;20644598;28;20086;-74
2023/09/03 07:34:43;;;;;;;11.67;4.83;;;;;;;31.41;84.38;100857.47;20645604;28;20630;-74
2023/09/03 07:45:08;;;;;;;14.55;5.00;;;;;;;31.11;83.27;100852.28;20646367;28;20046;-74
2023/09/03 07:55:30;;;;;;;14.43;4.63;;;;;;;31.16;83.36;100852.84;20633644;28;20136;-73
2023/09/03 08:05:55;;;;;;;13.68;4.97;;;;;;;30.93;84.54;100848.03;20639147;28;20058;-73
2023/09/03 08:16:17;;;;;;;14.73;4.82;;;;;;;30.65;85.84;100868.13;20602214;28;20104;-73
2023/09/03 08:26:41;;;;;;;15.98;5.05;;;;;;;30.39;88.95;100875.25;20657715;28;20062;-74
2023/09/03 08:37:04;;;;;;;13.52;4.90;;;;;;;30.53;86.66;100874.34;20660338;28;20104;-73
2023/09/03 08:47:28;;;;;;;15.65;5.32;;;;;;;30.57;90.14;100862.28;20637860;28;20050;-74
2023/09/03 08:57:54;;;;;;;10.93;4.75;;;;;;;30.94;90.46;100856.13;20657161;28;20038;-74
2023/09/03 09:08:18;;;;;;;10.95;4.65;;;;;;;31.01;87.85;100843.81;20655728;28;20078;-73
2023/09/03 09:18:42;;;;;;;15.57;5.30;;;;;;;31.32;76.80;100822.63;20656415;28;20578;-74
2023/09/03 09:29:07;;;;;;;13.00;5.70;;;;;;;31.21;70.55;100816.06;20655472;28;20100;-73
2023/09/03 09:39:30;;;;;;;11.13;4.80;;;;;;;31.62;75.17;100824.13;20654660;28;20054;-73
2023/09/03 09:49:55;;;;;;;13.70;5.50;;;;;;;31.91;65.79;100823.88;20649359;28;20078;-73
2023/09/03 10:00:33;;;;;;;12.25;5.55;;;;;;;31.85;65.29;100836.13;20646120;28;20109;-73
2023/09/03 10:10:57;;;;;;;11.02;5.20;;;;;;;31.78;66.09;100845.72;20646726;28;20070;-74
2023/09/03 10:21:22;;;;;;;12.23;4.72;;;;;;;31.89;64.37;100847.72;20642008;28;20053;-76
2023/09/03 10:31:48;;;;;;;12.27;5.22;;;;;;;31.91;69.62;100852.06;20649684;28;20046;-75
2023/09/03 10:42:28;;;;;;;13.68;5.82;;;;;;;32.19;73.96;100845.50;20651031;28;20066;-74
2023/09/03 10:52:52;;;;;;;9.50;5.13;;;;;;;32.56;70.49;100835.44;20632297;28;20407;-74
2023/09/03 11:03:21;;;;;;;12.50;5.03;;;;;;;32.69;64.98;100855.44;20634260;28;20097;-75
2023/09/03 11:13:51;;;;;;;16.50;5.78;;;;;;;32.20;61.51;100839.06;20665467;28;20050;-74
2023/09/03 11:24:15;;;;;;;11.60;5.45;;;;;;;31.99;60.46;100840.59;20679843;28;20109;-74
2023/09/03 11:34:40;;;;;;;11.50;5.60;;;;;;;32.41;64.64;100839.34;20678242;28;20121;-74
2023/09/03 11:45:04;;;;;;;11.30;4.80;;;;;;;32.45;65.76;100838.13;20659987;28;20046;-73
2023/09/03 11:55:30;;;;;;;14.18;5.72;;;;;;;32.16;69.78;100834.81;20646093;28;20042;-74
2023/09/03 12:05:53;;;;;;;13.77;5.65;;;;;;;32.13;72.62;100837.72;20708139;28;20112;-73
2023/09/03 12:16:21;;;;;;;13.70;5.50;;;;;;;32.13;71.91;100835.00;20683354;28;20337;-73
2023/09/03 12:26:43;;;;;;;11.25;5.38;;;;;;;32.18;69.91;100824.63;20645359;28;20050;-73
2023/09/03 12:37:08;;;;;;;13.25;5.25;;;;;;;31.89;69.05;100815.81;20639169;28;20043;-72
2023/09/03 12:47:31;;;;;;;14.57;5.70;;;;;;;31.94;67.86;100815.47;20615941;28;20051;-73
2023/09/03 12:57:55;;;;;;;12.10;5.45;;;;;;;31.65;71.40;100807.50;20622758;28;20050;-73
2023/09/03 13:08:17;;;;;;;14.43;5.78;;;;;;;31.60;73.90;100822.47;20614732;28;20394;-73
2023/09/03 13:18:41;;;;;;;11.93;6.00;;;;;;;31.63;75.34;100804.03;20602431;28;20054;-73
2023/09/03 13:29:04;;;;;;;17.92;6.25;;;;;;;31.64;76.61;100813.94;20607324;28;20051;-73
2023/09/03 13:39:28;;;;;;;17.77;6.60;;;;;;;31.03;81.82;100805.53;20625832;28;20097;-73
2023/09/03 13:49:51;;;;;;;15.23;6.28;;;;;;;30.81;85.09;100804.25;20610738;28;20987;-72
2023/09/03 14:00:15;;;;;;;20.58;6.82;;;;;;;30.69;86.75;100804.22;20660563;28;20116;-73
2023/09/03 14:10:38;;;;;;;14.73;6.80;;;;;;;30.48;89.39;100787.41;20643545;28;20133;-73
2023/09/03 14:21:06;;;;;;;17.80;6.85;;;;;;;30.34;90.77;100799.22;20626218;28;20038;-74
2023/09/03 14:31:29;;;;;;;16.52;6.43;;;;;;;30.74;89.21;100789.28;20641543;28;20109;-73
2023/09/03 14:41:55;;;;;;;15.00;6.60;;;;;;;30.31;91.98;100784.94;20652356;28;20082;-73
2023/09/03 14:52:19;;;;;;;17.02;7.05;;;;;;;29.83;95.39;100780.81;20649129;28;20105;-74
2023/09/03 15:02:44;;;;;;;15.93;6.35;;;;;;;29.75;99.17;100770.41;20624724;28;20047;-74
2023/09/03 15:13:06;;;;;;;18.13;7.45;;;;;;;29.77;100.00;100773.03;20647189;28;20046;-73
2023/09/03 15:23:30;;;;;;;15.98;7.13;;;;;;;29.78;100.00;100770.22;20645465;28;20120;-73
2023/09/03 15:33:53;;;;;;;18.98;7.50;;;;;;;29.46;100.00;100763.22;20653296;28;20053;-72
2023/09/03 15:44:16;;;;;;;14.45;6.85;;;;;;;29.20;100.00;100759.38;20662969;28;20510;-73
2023/09/03 15:54:41;;;;;;;14.90;7.50;;;;;;;28.95;100.00;100751.81;20609210;28;20073;-73
2023/09/03 16:05:06;;;;;;;19.63;7.97;;;;;;;28.77;100.00;100756.53;20632611;28;20441;-73
2023/09/03 16:15:29;;;;;;;19.20;8.13;;;;;;;28.55;100.00;100745.19;20663625;28;20081;-72
2023/09/03 16:25:52;;;;;;;17.98;8.07;;;;;;;28.29;100.00;100752.09;20690910;28;20105;-73
2023/09/03 16:36:15;;;;;;;25.10;13.43;;;;;;;28.19;100.00;100733.72;20648888;28;20142;-73
2023/09/03 16:46:39;;;;;;;28.70;15.95;;;;;;;27.89;100.00;100744.47;20644176;28;20141;-73
2023/09/03 16:57:02;;;;;;;26.83;15.02;;;;;;;27.68;100.00;100741.13;20629710;28;20093;-73
2023/09/03 17:07:26;;;;;;;22.65;11.38;;;;;;;27.59;100.00;100752.47;20657809;28;20065;-73
2023/09/03 17:17:50;;;;;;;24.17;11.73;;;;;;;27.55;100.00;100765.34;20655986;28;20113;-73
2023/09/03 17:28:14;;;;;;;18.42;10.88;;;;;;;27.40;100.00;100754.41;20657633;28;20446;-72
2023/09/03 17:38:37;;;;;;;23.70;14.30;;;;;;;27.37;100.00;100777.16;20656037;28;20057;-73
2023/09/03 17:49:01;;;;;;;18.88;9.35;;;;;;;27.30;100.00;100770.31;20652019;28;20541;-72
2023/09/03 17:59:23;;;;;;;21.15;11.60;;;;;;;27.22;100.00;100777.97;20652933;28;20552;-72
2023/09/03 18:09:47;;;;;;;19.27;7.55;;;;;;;27.16;100.00;100778.31;20649695;28;20046;-73
2023/09/03 18:20:10;;;;;;;15.15;7.80;;;;;;;27.11;100.00;100783.09;20700554;28;20053;-73
2023/09/03 18:30:34;;;;;;;19.33;8.88;;;;;;;27.03;100.00;100769.94;20659626;28;20046;-73
2023/09/03 18:40:58;;;;;;;17.20;7.50;;;;;;;26.98;100.00;100783.72;20644211;28;20054;-72
2023/09/03 18:51:23;;;;;;;13.98;7.57;;;;;;;26.94;100.00;100784.84;20634061;28;20050;-73
2023/09/03 19:01:46;;;;;;;16.15;7.47;;;;;;;26.92;100.00;100767.78;20633608;28;20458;-72
2023/09/03 19:12:11;;;;;;;14.82;6.00;;;;;;;26.85;100.00;100769.00;20639730;28;20517;-72
2023/09/03 19:22:35;;;;;;;16.25;5.85;;;;;;;26.74;100.00;100740.72;20642647;28;20053;-73
2023/09/03 19:32:59;;;;;;;12.60;6.20;;;;;;;26.67;100.00;100729.31;20645463;28;20054;-72
2023/09/03 19:43:22;;;;;;;14.57;5.80;;;;;;;26.59;100.00;100718.88;20631515;28;20777;-73
2023/09/03 19:53:52;;;;;;;12.82;5.63;;;;;;;26.53;100.00;100719.19;20640993;28;20050;-74
2023/09/03 20:04:14;;;;;;;15.15;4.90;;;;;;;26.48;100.00;100712.25;20636629;28;20408;-73
2023/09/03 20:14:38;;;;;;;14.93;5.95;;;;;;;26.41;100.00;100727.94;20662939;28;20054;-74
2023/09/03 20:25:01;;;;;;;11.80;4.72;;;;;;;26.36;100.00;100704.78;20646417;28;20050;-73
2023/09/03 20:35:26;;;;;;;18.70;5.95;;;;;;;26.32;100.00;100714.84;20659090;28;20116;-73
2023/09/03 20:45:48;;;;;;;12.32;4.72;;;;;;;26.27;100.00;100708.81;20661216;28;20050;-73
2023/09/03 20:56:12;;;;;;;14.88;5.07;;;;;;;26.21;100.00;100692.84;20659446;28;20042;-74
2023/09/03 21:06:34;;;;;;;14.55;4.93;;;;;;;26.14;100.00;100683.28;20658627;28;20101;-74
2023/09/03 21:16:58;;;;;;;11.27;4.63;;;;;;;26.10;100.00;100673.56;20647094;28;20050;-74
2023/09/03 21:27:21;;;;;;;12.75;5.00;;;;;;;26.06;100.00;100672.81;20654385;28;20051;-74
2023/09/03 21:37:45;;;;;;;11.55;4.18;;;;;;;26.04;100.00;100660.34;20655440;28;20053;-74
2023/09/03 21:48:10;;;;;;;11.50;4.38;;;;;;;26.04;100.00;100649.53;20639995;28;20621;-73
2023/09/03 21:58:34;;;;;;;12.35;4.20;;;;;;;26.00;100.00;100642.50;20651580;28;20573;-73
2023/09/03 22:08:57;;;;;;;13.20;4.78;;;;;;;25.95;100.00;100634.59;20639561;28;20692;-73
2023/09/03 22:19:21;;;;;;;9.93;4.15;;;;;;;25.94;100.00;100605.78;20652985;28;20052;-74
2023/09/03 22:29:44;;;;;;;12.82;4.18;;;;;;;25.88;100.00;100589.88;20639972;28;20057;-73
2023/09/03 22:40:11;;;;;;;13.50;4.15;;;;;;;25.84;100.00;100598.22;20619445;28;20104;-73
2023/09/03 22:50:33;;;;;;;12.93;4.40;;;;;;;25.73;100.00;100577.97;20622667;28;20057;-73
2023/09/03 23:01:00;;;;;;;14.27;5.22;;;;;;;25.71;100.00;100566.38;20631471;28;20038;-73
2023/09/03 23:11:22;;;;;;;13.95;4.20;;;;;;;25.67;100.00;100567.47;20643237;28;20116;-74
2023/09/03 23:21:47;;;;;;;12.95;4.68;;;;;;;25.61;100.00;100548.84;20646373;28;20046;-73
2023/09/03 23:32:09;;;;;;;14.50;4.53;;;;;;;25.53;100.00;100542.06;20631129;28;20387;-73
2023/09/03 23:42:35;;;;;;;12.75;4.45;;;;;;;25.50;100.00;100539.50;20649998;28;20113;-74
2023/09/03 23:52:58;;;;;;;12.27;4.47;;;;;;;25.42;100.00;100538.06;20657182;28;20054;-74
